Time;durP1;ratioP1;P1;durP2;ratioP2;P2;SDS_P1;SDS_P2;PMS_P1;PMS_P2;Temp;Humidity;BMP_temperature;BMP_pressure;BME280_temperature;BME280_humidity;BME280_pressure;Samples;Min_cycle;Max_cycle;Signal;HPM_P1;HPM_P2
2021/04/09 00:01:45;;;;;;;19.50;17.50;;;;;;;7.14;44.34;101164.38;5057815;28;20471;-71
2021/04/09 00:04:12;;;;;;;19.23;17.20;;;;;;;7.24;44.56;101153.47;5057913;28;20204;-70
2021/04/09 00:06:38;;;;;;;20.80;17.47;;;;;;;7.02;44.31;101154.50;5058358;28;20443;-71
2021/04/09 00:09:07;;;;;;;20.03;18.17;;;;;;;6.65;45.11;101153.34;5057720;28;20511;-71
2021/04/09 00:11:33;;;;;;;19.57;17.63;;;;;;;6.70;45.34;101165.63;5060975;28;20528;-70
2021/04/09 00:13:58;;;;;;;19.03;17.03;;;;;;;6.83;45.49;101145.28;5061463;28;20478;-69
2021/04/09 00:16:23;;;;;;;20.13;17.80;;;;;;;6.66;45.24;101137.84;5057944;28;20173;-69
2021/04/09 00:18:49;;;;;;;18.13;16.33;;;;;;;6.90;45.00;101139.44;5057759;28;20169;-70
2021/04/09 00:21:14;;;;;;;19.27;17.27;;;;;;;6.90;44.73;101142.03;5058093;28;20604;-70
2021/04/09 00:23:39;;;;;;;21.07;16.63;;;;;;;6.73;45.22;101133.75;5057543;28;20185;-70
2021/04/09 00:26:05;;;;;;;19.70;17.70;;;;;;;6.93;45.72;101136.97;5057356;28;20245;-71
2021/04/09 00:28:30;;;;;;;18.27;16.50;;;;;;;7.28;43.61;101129.38;5058232;28;20658;-71
2021/04/09 00:30:55;;;;;;;19.40;17.50;;;;;;;7.01;45.52;101126.81;5056641;28;20267;-70
2021/04/09 00:33:21;;;;;;;18.50;16.33;;;;;;;7.06;45.46;101123.53;5061185;28;20255;-71
2021/04/09 00:35:46;;;;;;;18.60;16.47;;;;;;;7.30;44.61;101116.44;5061801;28;20229;-70
2021/04/09 00:38:12;;;;;;;18.60;16.70;;;;;;;7.09;43.94;101120.16;5060929;28;20177;-70
2021/04/09 00:40:38;;;;;;;19.27;17.03;;;;;;;7.30;46.11;101122.50;5061322;28;20546;-70
2021/04/09 00:43:06;;;;;;;18.77;16.57;;;;;;;6.85;44.30;101125.47;5061793;28;20196;-70
2021/04/09 00:45:32;;;;;;;19.37;17.40;;;;;;;7.24;44.78;101117.16;5060997;28;20427;-71
2021/04/09 00:47:58;;;;;;;18.67;16.87;;;;;;;7.07;44.49;101125.28;5061017;28;20401;-70
2021/04/09 00:50:23;;;;;;;18.60;16.80;;;;;;;6.89;44.52;101123.03;5061546;28;20180;-70
2021/04/09 00:52:49;;;;;;;19.13;16.93;;;;;;;6.91;43.81;101107.50;5060931;28;20212;-70
2021/04/09 00:55:15;;;;;;;19.70;17.30;;;;;;;7.15;44.11;101106.50;5060390;28;20597;-71
2021/04/09 00:57:42;;;;;;;18.70;16.70;;;;;;;7.08;44.63;101101.13;5061487;28;20415;-71
2021/04/09 01:00:10;;;;;;;19.07;16.70;;;;;;;6.90;45.36;101106.66;5060751;28;20446;-71
2021/04/09 01:02:36;;;;;;;17.50;15.70;;;;;;;7.20;43.62;101099.75;5060536;28;20423;-70
2021/04/09 01:05:04;;;;;;;19.63;16.03;;;;;;;7.49;43.46;101091.91;5061444;28;20405;-70
2021/04/09 01:07:29;;;;;;;18.07;16.17;;;;;;;6.97;44.01;101086.06;5060834;28;20420;-72
2021/04/09 01:09:54;;;;;;;20.37;16.83;;;;;;;7.29;43.66;101087.03;5060969;28;20420;-70
2021/04/09 01:12:20;;;;;;;21.93;16.53;;;;;;;7.21;43.75;101078.16;5060593;28;20224;-71
2021/04/09 01:14:46;;;;;;;19.90;17.33;;;;;;;6.98;44.51;101074.88;5060695;28;20182;-70
2021/04/09 01:17:33;;;;;;;17.83;15.93;;;;;;;7.00;44.26;101068.03;5060008;28;20185;-71
2021/04/09 01:20:26;;;;;;;20.43;16.77;;;;;;;7.03;45.11;101062.94;5059742;28;20526;-70
2021/04/09 01:23:17;;;;;;;17.90;16.07;;;;;;;6.95;44.84;101047.16;5060362;28;20458;-70
2021/04/09 01:26:03;;;;;;;19.07;16.63;;;;;;;7.20;44.05;101040.97;5059613;28;20460;-70
2021/04/09 01:28:31;;;;;;;19.10;16.83;;;;;;;7.42;43.20;101047.63;5059514;28;20517;-71
2021/04/09 01:31:28;;;;;;;22.70;18.17;;;;;;;7.30;43.35;101043.84;5059783;28;20423;-70
2021/04/09 01:33:55;;;;;;;19.03;17.03;;;;;;;7.23;43.50;101043.66;5059718;28;20822;-72
2021/04/09 01:36:48;;;;;;;21.10;17.70;;;;;;;6.71;44.86;101027.47;5059481;28;20427;-70
2021/04/09 01:39:19;;;;;;;21.40;17.07;;;;;;;7.01;44.90;101024.03;5059176;28;20475;-71
2021/04/09 01:41:44;;;;;;;19.53;17.60;;;;;;;6.79;44.95;101029.41;5059847;28;20522;-70
2021/04/09 01:44:11;;;;;;;20.33;17.30;;;;;;;6.84;44.50;101025.25;5058778;28;20416;-70
2021/04/09 01:46:42;;;;;;;20.33;17.50;;;;;;;7.06;44.63;101018.94;5059771;28;20447;-70
2021/04/09 01:49:08;;;;;;;19.47;17.47;;;;;;;7.14;44.45;101019.19;5060027;28;20416;-72
2021/04/09 01:51:34;;;;;;;19.50;17.30;;;;;;;6.95;44.72;101010.88;5059761;28;20420;-70
2021/04/09 01:54:00;;;;;;;18.97;16.97;;;;;;;7.13;44.56;101012.22;5059768;28;20879;-70
2021/04/09 01:56:25;;;;;;;20.43;17.40;;;;;;;6.85;45.79;101016.63;5059566;28;20427;-71
2021/04/09 01:58:51;;;;;;;20.40;17.70;;;;;;;6.84;44.65;101020.06;5059076;28;20477;-70
2021/04/09 02:01:17;;;;;;;18.97;16.70;;;;;;;7.00;44.94;101011.03;5060562;28;20166;-71
2021/04/09 02:03:45;;;;;;;20.13;16.63;;;;;;;6.91;44.78;101006.44;5058854;28;20165;-71
2021/04/09 02:06:12;;;;;;;20.00;17.70;;;;;;;7.13;43.88;100992.38;5058809;28;20424;-70
2021/04/09 02:08:37;;;;;;;23.97;18.40;;;;;;;6.73;44.80;100986.06;5064354;28;20408;-70
2021/04/09 02:11:03;;;;;;;18.43;16.53;;;;;;;6.85;44.66;100978.63;5061367;28;20650;-71
2021/04/09 02:13:30;;;;;;;25.10;17.83;;;;;;;6.49;46.16;100971.53;5058150;28;20213;-71
2021/04/09 02:15:56;;;;;;;22.30;17.20;;;;;;;6.74;44.78;100967.97;5059059;28;20416;-70
2021/04/09 02:18:24;;;;;;;18.37;16.47;;;;;;;6.80;44.54;100961.19;5059462;28;20570;-69
2021/04/09 02:20:50;;;;;;;20.30;16.33;;;;;;;6.69;44.68;100960.91;5059299;28;20415;-70
2021/04/09 02:23:15;;;;;;;18.87;16.93;;;;;;;7.13;44.72;100947.41;5059660;28;20426;-71
2021/04/09 02:25:40;;;;;;;20.43;16.47;;;;;;;6.95;44.99;100950.38;5059185;28;20225;-72
2021/04/09 02:28:06;;;;;;;19.73;16.27;;;;;;;6.50;45.63;100947.41;5059075;28;20508;-70
2021/04/09 02:30:31;;;;;;;17.30;15.60;;;;;;;6.76;45.87;100939.50;5059703;28;20477;-71
2021/04/09 02:32:56;;;;;;;18.47;15.63;;;;;;;6.68;46.27;100943.59;5058980;28;20224;-71
2021/04/09 02:35:22;;;;;;;20.47;16.80;;;;;;;6.42;47.03;100945.44;5059188;28;20186;-70
2021/04/09 02:37:49;;;;;;;19.47;17.30;;;;;;;6.94;44.73;100936.56;5059558;28;20174;-72
2021/04/09 02:40:16;;;;;;;18.63;16.80;;;;;;;6.88;44.87;100944.16;5058960;28;20194;-71
2021/04/09 02:42:45;;;;;;;21.07;17.17;;;;;;;6.35;47.19;100940.06;5058793;28;20485;-70
2021/04/09 02:45:11;;;;;;;17.33;15.60;;;;;;;6.49;46.13;100942.19;5058567;28;20416;-71
2021/04/09 02:47:38;;;;;;;20.63;16.93;;;;;;;6.52;46.03;100943.16;5059009;28;20450;-71
2021/04/09 02:50:14;;;;;;;19.17;15.63;;;;;;;6.40;47.20;100932.44;5058309;28;20679;-70
2021/04/09 02:52:45;;;;;;;22.23;17.57;;;;;;;6.76;45.98;100931.72;5057884;28;20550;-71
2021/04/09 02:55:14;;;;;;;23.90;17.37;;;;;;;6.23;46.73;100930.19;5057832;28;20420;-71
2021/04/09 02:57:42;;;;;;;17.30;15.50;;;;;;;6.32;47.42;100914.06;5091072;28;20420;-71
2021/04/09 03:00:08;;;;;;;16.53;14.73;;;;;;;5.95;47.89;100905.13;5058006;28;20416;-72
2021/04/09 03:02:34;;;;;;;17.53;15.70;;;;;;;6.44;46.73;100913.56;5058116;28;20431;-71
2021/04/09 03:04:59;;;;;;;17.80;15.90;;;;;;;6.10;46.70;100898.72;5057798;28;20408;-71
2021/04/09 03:07:25;;;;;;;19.67;16.43;;;;;;;6.23;48.42;100900.84;5055677;28;20182;-71
2021/04/09 03:09:50;;;;;;;19.00;16.57;;;;;;;6.31;46.91;100899.38;5039326;28;20193;-70
2021/04/09 03:12:19;;;;;;;20.47;16.50;;;;;;;6.20;47.18;100898.19;5038373;28;20576;-71
2021/04/09 03:14:48;;;;;;;21.47;15.80;;;;;;;5.98;48.71;100892.34;5038366;28;20220;-70
2021/04/09 03:17:36;;;;;;;20.43;18.23;;;;;;;6.36;48.57;100884.84;5056870;28;20744;-70
2021/04/09 03:20:01;;;;;;;22.63;16.63;;;;;;;6.15;46.90;100894.56;5057596;28;20482;-70
2021/04/09 03:22:26;;;;;;;18.90;15.83;;;;;;;5.85;47.66;100880.69;5057921;28;20428;-70
2021/04/09 03:24:52;;;;;;;17.63;15.77;;;;;;;6.47;47.13;100876.50;5063688;28;20223;-70
2021/04/09 03:27:17;;;;;;;18.90;16.90;;;;;;;6.44;47.25;100873.81;5048402;28;20190;-70
2021/04/09 03:29:43;;;;;;;19.73;16.63;;;;;;;6.47;46.34;100871.31;5048484;28;20171;-69
2021/04/09 03:32:11;;;;;;;17.97;16.07;;;;;;;6.31;47.70;100865.69;5046552;28;20232;-69
2021/04/09 03:34:36;;;;;;;20.63;16.30;;;;;;;6.14;46.75;100864.31;5047658;28;20440;-69
2021/04/09 03:37:02;;;;;;;18.97;16.83;;;;;;;6.24;48.67;100853.44;5060727;28;20415;-69
2021/04/09 03:39:27;;;;;;;19.23;16.60;;;;;;;6.14;47.16;100853.97;5059328;28;20204;-70
2021/04/09 03:41:52;;;;;;;17.30;15.47;;;;;;;5.80;48.76;100850.34;5058865;28;20265;-70
2021/04/09 03:44:17;;;;;;;18.60;16.60;;;;;;;6.09;47.72;100846.09;5052550;28;20208;-70
2021/04/09 03:46:43;;;;;;;19.67;15.93;;;;;;;5.98;47.77;100839.69;5038758;28;20232;-70
2021/04/09 03:49:08;;;;;;;20.47;16.93;;;;;;;6.11;47.73;100849.59;5041337;28;20185;-71
2021/04/09 03:51:35;;;;;;;18.50;16.60;;;;;;;6.21;47.13;100845.53;5063303;28;20204;-71
2021/04/09 03:54:00;;;;;;;17.43;15.63;;;;;;;6.18;47.82;100837.69;5072519;28;20223;-70
2021/04/09 03:56:26;;;;;;;20.90;16.83;;;;;;;5.98;47.12;100822.47;5059322;28;20448;-70
2021/04/09 03:58:51;;;;;;;19.80;16.90;;;;;;;5.94;48.23;100836.13;5062537;28;20173;-71
2021/04/09 04:01:17;;;;;;;18.67;16.20;;;;;;;5.99;47.53;100824.22;5067557;28;20227;-70
2021/04/09 04:03:42;;;;;;;17.67;15.87;;;;;;;6.02;47.36;100826.91;5057954;28;20253;-71
2021/04/09 04:06:07;;;;;;;17.60;15.53;;;;;;;6.30;47.42;100819.06;5082122;28;20168;-70
2021/04/09 04:08:33;;;;;;;21.27;16.10;;;;;;;6.04;48.08;100825.22;5082999;28;20530;-70
2021/04/09 04:10:58;;;;;;;18.20;16.20;;;;;;;6.18;47.68;100812.72;5081861;28;20169;-69
2021/04/09 04:13:23;;;;;;;18.77;16.57;;;;;;;5.80;47.84;100817.56;5067707;28;20204;-70
2021/04/09 04:15:49;;;;;;;20.63;16.17;;;;;;;6.10;47.86;100813.31;5061646;28;20228;-71
2021/04/09 04:18:14;;;;;;;17.70;15.90;;;;;;;6.11;47.93;100810.75;5062985;28;20187;-71
2021/04/09 04:20:40;;;;;;;17.97;15.50;;;;;;;6.18;47.16;100804.94;5061960;28;20165;-70
2021/04/09 04:23:05;;;;;;;22.83;16.37;;;;;;;6.12;47.41;100801.31;5044294;28;20297;-70
2021/04/09 04:25:30;;;;;;;17.30;15.43;;;;;;;6.04;48.37;100804.53;5051912;28;20291;-71
2021/04/09 04:27:56;;;;;;;18.40;16.40;;;;;;;6.53;47.16;100798.97;5062047;28;20166;-71
2021/04/09 04:30:21;;;;;;;17.43;15.50;;;;;;;6.06;48.74;100807.16;5058693;28;20239;-70
2021/04/09 04:32:46;;;;;;;18.23;15.20;;;;;;;5.94;48.14;100796.41;5041333;28;20237;-70
2021/04/09 04:35:12;;;;;;;18.53;15.67;;;;;;;6.52;47.50;100795.53;5042058;28;20166;-70
2021/04/09 04:37:38;;;;;;;18.17;16.30;;;;;;;6.36;47.07;100785.56;5040680;28;20618;-71
2021/04/09 04:40:04;;;;;;;18.50;16.13;;;;;;;6.16;48.17;100790.19;5043431;28;20201;-71
2021/04/09 04:42:29;;;;;;;16.67;14.93;;;;;;;6.41;48.11;100786.56;5041451;28;20208;-70
2021/04/09 04:44:54;;;;;;;17.83;15.90;;;;;;;6.55;47.74;100794.72;5041341;28;20444;-69
2021/04/09 04:47:20;;;;;;;18.90;16.90;;;;;;;6.27;48.13;100796.53;5053232;28;20261;-70
2021/04/09 04:49:45;;;;;;;20.33;15.50;;;;;;;6.16;48.83;100798.84;5042462;28;20229;-70
2021/04/09 04:52:10;;;;;;;17.30;15.20;;;;;;;6.34;47.83;100790.69;5041090;28;20528;-69
2021/04/09 04:54:36;;;;;;;18.80;16.07;;;;;;;6.54;48.02;100790.38;5041143;28;20193;-70
2021/04/09 04:57:01;;;;;;;19.77;16.10;;;;;;;5.97;48.35;100797.41;5041542;28;20300;-70
2021/04/09 04:59:26;;;;;;;17.83;15.60;;;;;;;6.18;49.25;100786.81;5075502;28;20272;-71
2021/04/09 05:01:52;;;;;;;17.70;15.87;;;;;;;6.15;48.67;100791.03;5060788;28;20235;-70
2021/04/09 05:04:17;;;;;;;19.67;15.40;;;;;;;6.58;47.37;100798.25;5061094;28;20511;-69
2021/04/09 05:06:42;;;;;;;17.77;14.63;;;;;;;6.10;49.00;100795.19;5059087;28;20266;-70
2021/04/09 05:09:07;;;;;;;16.10;14.30;;;;;;;6.85;47.89;100791.19;5060686;28;20274;-70
2021/04/09 05:11:34;;;;;;;18.90;15.53;;;;;;;6.61;48.67;100789.69;5052258;28;20178;-71
2021/04/09 05:13:59;;;;;;;18.30;15.93;;;;;;;6.32;48.69;100794.97;5052506;28;20512;-70
2021/04/09 05:16:24;;;;;;;18.20;15.37;;;;;;;6.62;48.12;100786.28;5055932;28;20447;-69
2021/04/09 05:18:49;;;;;;;18.10;15.27;;;;;;;6.63;47.46;100788.03;5059905;28;20261;-69
2021/04/09 05:21:15;;;;;;;20.23;14.40;;;;;;;7.11;48.08;100778.00;5060511;28;20188;-70
2021/04/09 05:23:40;;;;;;;17.50;15.70;;;;;;;6.14;49.20;100790.13;5058719;28;20570;-69
2021/04/09 05:26:06;;;;;;;19.40;14.80;;;;;;;5.96;49.24;100790.44;5051042;28;20221;-69
2021/04/09 05:28:31;;;;;;;19.70;15.83;;;;;;;6.31;48.35;100790.63;5040393;28;20182;-71
2021/04/09 05:30:56;;;;;;;17.03;15.33;;;;;;;6.10;49.86;100797.78;5040540;28;20166;-70
2021/04/09 05:33:23;;;;;;;20.63;15.80;;;;;;;6.45;48.92;100784.94;5041168;28;20206;-70
2021/04/09 05:35:48;;;;;;;16.77;14.77;;;;;;;6.60;48.57;100787.94;5058256;28;20676;-70
2021/04/09 05:38:13;;;;;;;16.10;14.40;;;;;;;6.59;47.91;100778.44;5074331;28;20454;-70
2021/04/09 05:40:39;;;;;;;22.13;15.20;;;;;;;6.35;49.46;100781.22;5058046;28;20213;-70
2021/04/09 05:43:04;;;;;;;17.07;15.37;;;;;;;6.61;48.85;100778.47;5039959;28;20170;-69
2021/04/09 05:45:29;;;;;;;17.43;15.10;;;;;;;6.50;48.47;100784.22;5040437;28;20167;-70
2021/04/09 05:48:00;;;;;;;19.90;15.83;;;;;;;6.57;48.75;100785.28;5041081;28;20170;-71
2021/04/09 05:50:26;;;;;;;18.53;15.40;;;;;;;6.79;47.96;100784.09;5059883;28;20173;-71
2021/04/09 05:52:52;;;;;;;16.60;14.83;;;;;;;6.90;47.73;100782.69;5059891;28;20848;-71
2021/04/09 05:55:18;;;;;;;18.73;15.40;;;;;;;6.79;48.19;100785.84;5056225;28;20268;-69
2021/04/09 05:57:43;;;;;;;17.73;15.60;;;;;;;6.79;48.62;100780.66;5059354;28;20832;-71
2021/04/09 06:00:10;;;;;;;18.17;14.30;;;;;;;6.76;50.03;100784.03;5059970;28;20247;-70
2021/04/09 06:02:36;;;;;;;21.00;15.27;;;;;;;6.52;50.80;100782.56;5075247;28;20180;-70
2021/04/09 06:05:01;;;;;;;16.80;15.03;;;;;;;6.51;49.54;100778.22;5079725;28;20668;-70
2021/04/09 06:07:27;;;;;;;15.97;14.37;;;;;;;6.79;48.45;100780.66;5075406;28;20177;-71
2021/04/09 06:09:53;;;;;;;17.33;15.40;;;;;;;6.71;48.43;100773.56;5071316;28;20184;-69
2021/04/09 06:12:18;;;;;;;20.37;14.23;;;;;;;6.68;48.39;100782.97;5072326;28;20466;-70
2021/04/09 06:14:43;;;;;;;17.17;14.93;;;;;;;6.33;51.45;100775.13;5058457;28;20182;-70
2021/04/09 06:17:09;;;;;;;18.73;15.70;;;;;;;6.57;50.86;100777.50;5053850;28;20470;-71
2021/04/09 06:19:34;;;;;;;20.00;14.43;;;;;;;6.95;49.00;100780.19;5058863;28;20181;-70
2021/04/09 06:21:59;;;;;;;17.37;15.57;;;;;;;6.46;50.08;100778.94;5045782;28;20183;-70
2021/04/09 06:24:24;;;;;;;17.43;15.20;;;;;;;6.62;51.62;100762.09;5051945;28;20235;-71
2021/04/09 06:26:50;;;;;;;18.30;14.93;;;;;;;6.84;50.17;100773.88;5057413;28;20229;-70
2021/04/09 06:29:15;;;;;;;19.07;17.07;;;;;;;6.51;51.46;100759.22;5057827;28;20429;-70
2021/04/09 06:31:41;;;;;;;20.53;16.10;;;;;;;6.95;50.03;100756.00;5039662;28;20186;-70
2021/04/09 06:34:06;;;;;;;17.97;14.40;;;;;;;6.66;50.90;100753.56;5067474;28;20181;-70
2021/04/09 06:36:32;;;;;;;23.90;18.20;;;;;;;6.98;51.56;100746.59;5063070;28;20197;-71
2021/04/09 06:38:57;;;;;;;17.77;15.87;;;;;;;6.77;50.22;100749.53;5058997;28;20469;-70
2021/04/09 06:41:23;;;;;;;18.00;15.87;;;;;;;6.82;50.67;100749.63;5058361;28;20251;-70
2021/04/09 06:43:49;;;;;;;20.70;16.10;;;;;;;7.44;49.31;100746.78;5058981;28;20528;-70
2021/04/09 06:46:14;;;;;;;17.13;15.13;;;;;;;7.40;49.62;100734.56;5055577;28;20285;-70
2021/04/09 06:48:41;;;;;;;18.57;14.43;;;;;;;7.28;49.70;100752.44;5069109;28;20186;-70
2021/04/09 06:51:11;;;;;;;21.17;15.03;;;;;;;7.44;49.02;100746.78;5095674;28;20240;-70
2021/04/09 06:53:39;;;;;;;19.07;16.27;;;;;;;7.55;48.52;100744.41;5050722;28;20489;-71
2021/04/09 06:56:06;;;;;;;17.90;16.00;;;;;;;7.68;48.15;100742.97;5076902;28;20458;-71
2021/04/09 06:58:36;;;;;;;18.07;15.27;;;;;;;7.59;47.85;100741.06;5040611;28;20534;-70
2021/04/09 07:01:02;;;;;;;18.90;15.93;;;;;;;7.53;49.01;100736.59;5047529;28;20476;-69
2021/04/09 07:03:31;;;;;;;18.13;15.57;;;;;;;7.57;49.29;100741.00;5077676;28;20483;-70
2021/04/09 07:05:56;;;;;;;15.37;13.73;;;;;;;7.42;49.26;100733.78;5043474;28;20698;-70
2021/04/09 07:08:21;;;;;;;18.47;15.17;;;;;;;8.07;48.18;100736.88;5055344;28;20449;-70
2021/04/09 07:10:47;;;;;;;17.13;15.33;;;;;;;7.54;49.37;100732.31;5038980;28;20570;-69
2021/04/09 07:13:12;;;;;;;17.07;15.27;;;;;;;8.04;47.50;100729.88;5040318;28;20209;-69
2021/04/09 07:15:40;;;;;;;18.93;15.30;;;;;;;8.20;47.90;100725.88;5084345;28;20248;-71
2021/04/09 07:18:07;;;;;;;18.60;16.07;;;;;;;7.96;47.55;100726.25;5063798;28;20199;-70
2021/04/09 07:20:37;;;;;;;19.60;15.10;;;;;;;8.22;47.50;100721.56;5089859;28;20725;-69
2021/04/09 07:23:04;;;;;;;17.40;15.60;;;;;;;7.83;50.20;100714.75;5039902;28;20449;-70
2021/04/09 07:25:38;;;;;;;18.50;16.50;;;;;;;8.01;48.03;100724.63;5048805;28;21273;-70
2021/04/09 07:28:21;;;;;;;17.47;15.60;;;;;;;8.57;46.76;100730.91;5042617;28;20450;-69
2021/04/09 07:30:51;;;;;;;17.20;14.90;;;;;;;7.91;48.73;100727.88;5047604;28;20725;-70
2021/04/09 07:33:21;;;;;;;18.10;15.40;;;;;;;8.49;47.60;100724.69;5054717;28;20468;-70
2021/04/09 07:35:52;;;;;;;16.80;15.00;;;;;;;8.82;46.37;100727.00;5057684;28;20420;-71
2021/04/09 07:38:25;;;;;;;17.07;15.20;;;;;;;8.57;47.05;100721.38;5041081;28;20440;-70
2021/04/09 07:41:09;;;;;;;18.20;16.10;;;;;;;8.62;46.95;100724.06;5070847;28;20448;-71
2021/04/09 07:43:37;;;;;;;17.60;15.70;;;;;;;9.42;45.66;100724.44;5049112;28;20474;-71
2021/04/09 07:46:05;;;;;;;19.20;15.90;;;;;;;9.38;46.56;100717.44;5039671;28;20718;-70
2021/04/09 07:48:30;;;;;;;17.90;16.00;;;;;;;9.19;46.38;100730.19;5038415;28;20444;-70
2021/04/09 07:50:56;;;;;;;21.63;15.27;;;;;;;8.85;46.60;100733.94;5043279;28;20432;-69
2021/04/09 07:53:30;;;;;;;19.50;16.03;;;;;;;9.12;46.58;100740.44;5079329;28;20210;-71
2021/04/09 07:56:06;;;;;;;18.83;16.83;;;;;;;9.59;45.06;100738.56;5049371;28;20670;-70
2021/04/09 07:58:33;;;;;;;17.73;15.70;;;;;;;8.93;46.74;100735.84;5043052;28;20185;-70
2021/04/09 08:00:59;;;;;;;16.07;14.37;;;;;;;8.72;47.64;100741.53;5051717;28;20437;-70
2021/04/09 08:03:47;;;;;;;18.03;15.73;;;;;;;8.97;46.99;100736.78;5054143;28;20448;-70
2021/04/09 08:06:19;;;;;;;17.03;15.33;;;;;;;9.45;45.61;100740.09;5056256;28;20196;-69
2021/04/09 08:08:47;;;;;;;17.93;15.87;;;;;;;9.94;45.21;100734.66;5049532;28;20467;-69
2021/04/09 08:11:28;;;;;;;16.63;15.03;;;;;;;9.91;44.97;100734.63;5040562;28;20436;-68
2021/04/09 08:14:01;;;;;;;17.53;15.70;;;;;;;9.49;46.49;100734.06;5044570;28;20475;-69
2021/04/09 08:16:36;;;;;;;17.43;15.60;;;;;;;10.79;43.00;100723.38;5039220;28;20499;-70
2021/04/09 08:19:13;;;;;;;19.60;15.60;;;;;;;11.95;41.78;100710.19;5038920;28;20470;-69
2021/04/09 08:21:41;;;;;;;16.60;14.87;;;;;;;12.87;38.92;100708.59;5049324;28;20569;-69
2021/04/09 08:24:08;;;;;;;16.87;15.07;;;;;;;13.89;36.56;100704.00;5045040;28;20452;-69
2021/04/09 08:26:34;;;;;;;16.73;15.00;;;;;;;13.06;37.75;100707.69;5050489;28;20526;-69
2021/04/09 08:28:59;;;;;;;15.83;13.80;;;;;;;13.53;37.06;100705.91;5056125;28;20439;-68
2021/04/09 08:31:25;;;;;;;16.70;15.10;;;;;;;13.34;37.37;100712.00;5039581;28;20214;-67
2021/04/09 08:33:50;;;;;;;17.03;14.73;;;;;;;13.40;37.43;100704.19;5039151;28;20224;-69
2021/04/09 08:36:16;;;;;;;16.70;14.87;;;;;;;13.84;36.70;100704.91;5038332;28;20190;-70
2021/04/09 08:38:43;;;;;;;18.23;15.20;;;;;;;14.67;35.14;100703.53;5043533;28;20204;-69
2021/04/09 08:41:10;;;;;;;15.00;13.43;;;;;;;14.94;34.88;100708.56;5056871;28;20182;-70
2021/04/09 08:43:35;;;;;;;15.27;13.87;;;;;;;14.15;36.62;100703.88;5038236;28;20448;-68
2021/04/09 08:46:01;;;;;;;15.80;14.17;;;;;;;13.41;37.29;100705.91;5071461;28;20491;-69
2021/04/09 08:48:27;;;;;;;15.53;14.10;;;;;;;13.45;37.13;100702.44;5040335;28;20265;-68
2021/04/09 08:50:52;;;;;;;15.57;13.93;;;;;;;12.98;38.75;100715.56;5037481;28;20633;-68
2021/04/09 08:53:25;;;;;;;18.60;14.53;;;;;;;12.73;40.26;100709.47;5039693;28;20474;-68
2021/04/09 08:55:51;;;;;;;15.23;13.73;;;;;;;12.85;39.69;100710.34;5057879;28;20636;-68
2021/04/09 08:58:17;;;;;;;15.93;14.13;;;;;;;13.60;38.02;100702.38;5054693;28;20483;-68
2021/04/09 09:00:43;;;;;;;14.93;13.37;;;;;;;13.21;39.14;100712.03;5055678;28;20256;-67
2021/04/09 09:03:22;;;;;;;19.40;14.70;;;;;;;12.07;41.29;100704.13;5054891;28;20729;-67
2021/04/09 09:05:58;;;;;;;16.17;14.63;;;;;;;13.22;39.69;100699.81;5058932;28;20413;-68
2021/04/09 09:08:46;;;;;;;14.53;13.20;;;;;;;12.86;39.59;100701.63;5055544;28;20413;-68
2021/04/09 09:11:14;;;;;;;16.40;14.70;;;;;;;12.22;40.66;100711.16;5053095;28;20418;-66
2021/04/09 09:13:47;;;;;;;16.20;13.80;;;;;;;11.71;42.60;100713.56;5040058;28;20475;-67
2021/04/09 09:16:19;;;;;;;15.23;13.83;;;;;;;12.29;42.06;100718.13;5058581;28;20488;-68
2021/04/09 09:18:52;;;;;;;16.67;13.80;;;;;;;12.16;42.37;100718.97;5059051;28;20421;-68
2021/04/09 09:21:18;;;;;;;15.00;13.60;;;;;;;12.42;41.86;100719.00;5040226;28;20501;-69
2021/04/09 09:24:12;;;;;;;15.87;13.80;;;;;;;13.58;39.32;100709.34;5040332;28;20434;-69
2021/04/09 09:26:42;;;;;;;14.20;12.70;;;;;;;14.97;36.55;100695.41;5040103;28;20268;-69
2021/04/09 09:29:19;;;;;;;15.20;13.70;;;;;;;17.04;32.36;100691.81;5040056;28;20455;-69
2021/04/09 09:32:06;;;;;;;15.43;13.83;;;;;;;17.09;32.29;100687.34;5040931;28;20785;-68
2021/04/09 09:34:32;;;;;;;15.90;13.20;;;;;;;15.86;33.79;100682.22;5041873;28;20449;-69
2021/04/09 09:37:20;;;;;;;14.37;12.80;;;;;;;15.06;35.78;100686.59;5041710;28;20409;-68
2021/04/09 09:39:48;;;;;;;15.10;13.27;;;;;;;15.52;35.01;100681.72;5055400;28;20410;-68
2021/04/09 09:42:34;;;;;;;13.67;12.37;;;;;;;15.78;35.09;100682.28;5059848;28;20713;-68
2021/04/09 09:45:00;;;;;;;13.37;12.07;;;;;;;15.28;35.50;100681.13;5055979;28;20436;-68
2021/04/09 09:47:45;;;;;;;12.80;11.67;;;;;;;14.15;37.46;100680.28;5060177;28;20410;-68
2021/04/09 09:50:18;;;;;;;18.30;11.93;;;;;;;14.74;36.95;100690.38;5060465;28;20386;-68
2021/04/09 09:53:00;;;;;;;14.70;13.20;;;;;;;14.58;37.56;100688.72;5061712;28;20828;-68
2021/04/09 09:55:32;;;;;;;13.87;11.20;;;;;;;14.97;36.86;100684.91;5081951;28;20456;-68
2021/04/09 09:58:23;;;;;;;16.00;12.27;;;;;;;14.53;37.60;100680.91;5065255;28;20687;-67
2021/04/09 10:00:56;;;;;;;12.83;11.60;;;;;;;14.93;37.84;100691.06;5059597;28;20472;-68
2021/04/09 10:03:34;;;;;;;13.50;12.20;;;;;;;14.98;36.83;100697.16;5059408;28;20683;-69
2021/04/09 10:06:08;;;;;;;14.40;12.40;;;;;;;13.31;40.46;100705.03;5058065;28;20443;-68
2021/04/09 10:08:35;;;;;;;12.93;11.63;;;;;;;13.94;39.10;100696.13;5059543;28;20412;-68
2021/04/09 10:11:06;;;;;;;13.67;11.87;;;;;;;13.96;39.65;100704.84;5059658;28;20426;-69
2021/04/09 10:13:36;;;;;;;13.53;12.20;;;;;;;13.37;41.19;100706.78;5058909;28;20460;-69
2021/04/09 10:16:13;;;;;;;13.40;11.93;;;;;;;13.79;40.32;100697.94;5058429;28;20708;-69
2021/04/09 10:18:40;;;;;;;15.07;12.03;;;;;;;15.62;37.02;100691.25;5058699;28;20406;-70
2021/04/09 10:21:20;;;;;;;11.93;10.93;;;;;;;14.28;38.18;100702.03;5059123;28;20431;-71
2021/04/09 10:23:47;;;;;;;12.63;11.33;;;;;;;13.31;40.47;100708.53;5057885;28;20406;-71
2021/04/09 10:26:13;;;;;;;12.83;11.53;;;;;;;13.54;40.51;100691.91;5058766;28;20468;-70
2021/04/09 10:28:40;;;;;;;15.63;11.77;;;;;;;13.87;40.09;100697.00;5058643;28;20395;-68
2021/04/09 10:31:19;;;;;;;12.10;10.73;;;;;;;14.07;39.53;100702.16;5058687;28;20401;-69
2021/04/09 10:33:46;;;;;;;12.17;10.70;;;;;;;14.49;38.09;100687.03;5055953;28;20479;-69
2021/04/09 10:36:21;;;;;;;11.50;10.50;;;;;;;14.30;38.89;100695.03;5053328;28;20451;-70
2021/04/09 10:38:49;;;;;;;11.80;10.60;;;;;;;14.47;38.52;100694.06;5050256;28;20440;-69
2021/04/09 10:41:25;;;;;;;12.50;11.30;;;;;;;14.88;37.16;100692.00;5051870;28;20513;-69
2021/04/09 10:43:58;;;;;;;12.90;10.40;;;;;;;13.17;40.24;100705.06;5058737;28;20421;-69
2021/04/09 10:46:25;;;;;;;11.90;10.70;;;;;;;13.00;43.07;100707.69;5041184;28;20469;-71
2021/04/09 10:48:50;;;;;;;15.17;11.50;;;;;;;13.29;41.86;100702.44;5058488;28;20390;-69
2021/04/09 10:51:16;;;;;;;12.90;11.47;;;;;;;12.75;42.16;100699.88;5057480;28;20448;-68
2021/04/09 10:53:41;;;;;;;12.13;11.00;;;;;;;12.36;43.71;100711.19;5044872;28;20230;-69
2021/04/09 10:56:09;;;;;;;15.93;11.03;;;;;;;12.49;43.31;100714.66;5056495;28;20267;-68
2021/04/09 10:58:35;;;;;;;14.10;11.43;;;;;;;12.41;44.35;100712.91;5058079;28;20193;-68
2021/04/09 11:01:01;;;;;;;12.57;10.27;;;;;;;13.17;42.29;100698.97;5057591;28;20416;-68
2021/04/09 11:03:28;;;;;;;14.53;10.50;;;;;;;12.86;42.32;100710.31;5049817;28;20422;-68
2021/04/09 11:05:53;;;;;;;15.17;9.83;;;;;;;13.16;41.27;100708.56;5057362;28;20455;-70
2021/04/09 11:08:58;;;;;;;12.73;9.50;;;;;;;12.63;43.02;100710.31;5057333;28;20475;-68
2021/04/09 11:11:31;;;;;;;9.90;8.83;;;;;;;12.67;43.07;100705.97;5060542;28;20213;-69
2021/04/09 11:14:06;;;;;;;13.63;10.53;;;;;;;13.34;42.20;100696.31;5056287;28;20472;-68
2021/04/09 11:16:51;;;;;;;16.47;14.13;;;;;;;13.32;40.74;100701.53;5054729;28;20436;-69
2021/04/09 11:19:37;;;;;;;11.50;10.30;;;;;;;13.81;40.55;100693.56;5047454;28;20459;-70
2021/04/09 11:22:04;;;;;;;15.80;14.03;;;;;;;13.50;40.53;100694.56;5057685;28;20386;-71